Time;durP1;ratioP1;P1;durP2;ratioP2;P2;SDS_P1;SDS_P2;PMS_P1;PMS_P2;Temp;Humidity;BMP_temperature;BMP_pressure;BME280_temperature;BME280_humidity;BME280_pressure;Samples;Min_cycle;Max_cycle;Signal;HPM_P1;HPM_P2
2022/03/08 00:00:22;;;;;;;;;41.50;31.25;;;;;8.99;35.92;101441.13;5105360;27;61851;-76
2022/03/08 00:02:49;;;;;;;;;52.25;39.75;;;;;9.01;36.03;101439.50;5105755;27;61914;-76
2022/03/08 00:05:14;;;;;;;;;44.00;36.25;;;;;8.91;36.13;101438.06;5106567;27;61870;-76
2022/03/08 00:07:40;;;;;;;;;52.75;38.50;;;;;8.88;36.39;101439.56;5106303;27;61790;-76
2022/03/08 00:10:08;;;;;;;;;33.33;23.00;;;;;8.86;36.56;101430.72;5104440;27;62286;-76
2022/03/08 00:12:34;;;;;;;;;49.67;39.67;;;;;8.85;36.86;101429.81;5104445;27;63886;-76
2022/03/08 00:15:00;;;;;;;;;45.00;41.00;;;;;8.83;36.76;101426.22;5106010;27;61899;-76
2022/03/08 00:17:25;;;;;;;;;44.33;32.67;;;;;8.79;37.09;101432.06;5104383;27;62096;-76
2022/03/08 00:19:51;;;;;;;;;47.67;44.00;;;;;8.76;37.32;101432.78;5104947;27;62228;-76
2022/03/08 00:22:16;;;;;;;;;53.33;41.67;;;;;8.75;36.77;101428.34;5105419;27;61782;-76
2022/03/08 00:24:43;;;;;;;;;48.33;38.00;;;;;8.72;36.92;101430.78;5105466;27;62203;-76
2022/03/08 00:27:08;;;;;;;;;42.00;37.00;;;;;8.71;36.63;101433.28;5105129;27;62062;-76
2022/03/08 00:29:34;;;;;;;;;46.50;36.25;;;;;8.70;37.02;101418.41;5106209;27;61962;-76
2022/03/08 00:31:59;;;;;;;;;53.00;41.33;;;;;8.69;36.65;101424.44;5105068;27;62071;-76
2022/03/08 00:34:25;;;;;;;;;42.67;35.67;;;;;8.64;36.95;101423.25;5105929;27;61810;-76
2022/03/08 00:36:51;;;;;;;;;31.00;27.33;;;;;8.61;37.10;101423.94;5105785;27;62303;-76
2022/03/08 00:39:18;;;;;;;;;42.67;37.67;;;;;8.62;37.46;101427.50;5105066;27;61977;-76
2022/03/08 00:41:44;;;;;;;;;50.25;36.25;;;;;8.60;37.12;101435.25;5103738;27;63480;-76
2022/03/08 00:44:10;;;;;;;;;50.33;39.67;;;;;8.60;36.97;101423.06;5105702;27;62000;-77
2022/03/08 00:46:36;;;;;;;;;50.67;38.67;;;;;8.54;37.41;101433.13;5105645;27;61892;-76
2022/03/08 00:49:02;;;;;;;;;47.67;38.00;;;;;8.52;37.57;101426.00;5104368;27;62086;-76
2022/03/08 00:51:29;;;;;;;;;57.00;43.33;;;;;8.50;37.48;101425.91;5103854;27;64167;-76
2022/03/08 00:53:54;;;;;;;;;52.33;37.00;;;;;8.47;37.69;101422.22;5104707;27;61971;-76
2022/03/08 00:56:20;;;;;;;;;45.00;35.00;;;;;8.42;37.86;101424.53;5120789;27;61923;-76
2022/03/08 00:58:46;;;;;;;;;53.00;43.00;;;;;8.43;37.41;101428.03;5104088;27;62258;-76
2022/03/08 01:01:11;;;;;;;;;48.25;37.75;;;;;8.42;37.47;101427.16;5103244;27;65025;-76
2022/03/08 01:03:36;;;;;;;;;46.00;38.00;;;;;8.42;36.98;101421.91;5104276;27;61868;-76
2022/03/08 01:06:02;;;;;;;;;62.00;41.00;;;;;8.44;37.83;101427.22;5104171;27;61910;-76
2022/03/08 01:08:27;;;;;;;;;44.33;39.00;;;;;8.42;38.00;101426.22;5104215;27;62006;-77
2022/03/08 01:10:53;;;;;;;;;47.00;41.00;;;;;8.34;37.74;101418.78;5104673;27;62154;-76
2022/03/08 01:13:18;;;;;;;;;42.67;28.33;;;;;8.34;38.22;101418.78;5104062;27;61967;-76
2022/03/08 01:15:44;;;;;;;;;43.00;35.00;;;;;8.33;37.95;101416.06;5103971;27;62205;-76
2022/03/08 01:18:11;;;;;;;;;53.33;38.00;;;;;8.31;37.94;101417.66;5105098;27;61826;-76
2022/03/08 01:20:37;;;;;;;;;42.33;32.67;;;;;8.30;38.04;101408.03;5104305;27;62167;-76
2022/03/08 01:23:02;;;;;;;;;44.33;36.67;;;;;8.26;38.12;101412.16;5104222;27;61827;-76
2022/03/08 01:25:28;;;;;;;;;38.00;33.33;;;;;8.22;38.51;101411.84;5105101;27;61933;-76
2022/03/08 01:27:54;;;;;;;;;48.67;42.00;;;;;8.24;38.14;101415.47;5104908;27;62040;-76
2022/03/08 01:30:21;;;;;;;;;49.67;39.00;;;;;8.19;38.06;101410.84;5103185;27;61935;-76
2022/03/08 01:32:46;;;;;;;;;45.00;35.00;;;;;8.18;38.10;101413.34;5104618;27;61912;-76
2022/03/08 01:35:12;;;;;;;;;42.67;32.00;;;;;8.18;38.18;101413.34;5103236;27;61868;-76
2022/03/08 01:37:38;;;;;;;;;40.00;36.67;;;;;8.17;37.99;101408.94;5103507;27;62438;-77
2022/03/08 01:40:06;;;;;;;;;42.67;30.67;;;;;8.18;38.02;101405.50;5102406;27;63855;-76
2022/03/08 01:42:32;;;;;;;;;66.00;42.00;;;;;8.15;38.34;101406.22;5105023;27;61789;-76
2022/03/08 01:44:57;;;;;;;;;50.00;36.33;;;;;8.16;38.16;101409.75;5104914;27;62372;-76
2022/03/08 01:47:25;;;;;;;;;52.67;41.00;;;;;8.15;38.79;101407.94;5105007;27;62156;-76
2022/03/08 01:49:53;;;;;;;;;49.00;33.75;;;;;8.10;38.41;101414.59;5102052;27;64553;-76
2022/03/08 01:52:22;;;;;;;;;51.33;37.67;;;;;8.04;38.46;101404.66;5104643;27;62041;-76
2022/03/08 01:54:48;;;;;;;;;44.00;32.00;;;;;8.03;38.85;101404.53;5104563;27;61990;-76
2022/03/08 01:57:14;;;;;;;;;53.33;40.33;;;;;8.00;39.11;101402.63;5104192;27;61732;-76
2022/03/08 01:59:40;;;;;;;;;45.00;36.67;;;;;7.97;38.87;101397.22;5103713;27;62913;-76
2022/03/08 02:02:06;;;;;;;;;45.67;37.33;;;;;7.98;38.78;101399.00;5104537;27;61746;-76
2022/03/08 02:04:32;;;;;;;;;51.33;37.67;;;;;7.96;38.13;101401.53;5104028;27;61738;-76
2022/03/08 02:06:57;;;;;;;;;51.00;41.33;;;;;7.98;38.90;101394.69;5103095;27;61765;-76
2022/03/08 02:09:23;;;;;;;;;41.33;33.67;;;;;7.96;39.28;101387.56;5119087;27;63800;-76
2022/03/08 02:11:49;;;;;;;;;50.00;40.67;;;;;7.92;38.91;101386.44;5104452;27;61803;-76
2022/03/08 02:14:18;;;;;;;;;43.67;35.33;;;;;7.90;38.82;101380.22;5104381;27;61769;-76
2022/03/08 02:16:45;;;;;;;;;56.67;37.67;;;;;7.91;38.69;101383.75;5104417;27;61925;-76
2022/03/08 02:19:11;;;;;;;;;40.67;36.00;;;;;7.90;38.88;101381.94;5103205;27;62146;-76
2022/03/08 02:21:37;;;;;;;;;42.67;37.67;;;;;7.87;39.32;101386.97;5103223;27;61894;-76
2022/03/08 02:24:03;;;;;;;;;37.67;30.00;;;;;7.86;38.60;101377.31;5102510;27;62104;-76
2022/03/08 02:26:31;;;;;;;;;52.33;39.67;;;;;7.85;39.26;101371.19;5102324;27;62143;-76
2022/03/08 02:28:58;;;;;;;;;41.67;31.67;;;;;7.88;38.92;101368.75;5103539;27;62851;-76
2022/03/08 02:31:23;;;;;;;;;47.00;38.00;;;;;7.90;38.56;101369.75;5102515;27;61789;-76
2022/03/08 02:33:49;;;;;;;;;61.67;47.00;;;;;7.92;39.33;101378.59;5102189;27;62017;-76
2022/03/08 02:36:14;;;;;;;;;57.67;42.00;;;;;7.91;38.93;101374.19;5103405;27;61802;-76
2022/03/08 02:38:40;;;;;;;;;47.67;36.67;;;;;7.89;39.00;101373.19;5103256;27;61758;-76
2022/03/08 02:41:06;;;;;;;;;53.00;37.67;;;;;7.91;38.60;101368.06;5102626;27;61963;-76
2022/03/08 02:43:31;;;;;;;;;52.00;42.67;;;;;7.89;38.73;101367.97;5102453;27;61767;-76
2022/03/08 02:45:57;;;;;;;;;49.67;41.33;;;;;7.86;39.03;101362.56;5104322;27;62080;-76
2022/03/08 02:48:27;;;;;;;;;48.00;41.00;;;;;7.84;39.40;101358.00;5102855;27;63059;-76
2022/03/08 02:50:53;;;;;;;;;56.67;39.00;;;;;7.84;39.29;101358.94;5103777;27;62375;-76
2022/03/08 02:53:18;;;;;;;;;56.33;42.33;;;;;7.86;38.75;101357.31;5103573;27;61873;-76
2022/03/08 02:55:44;;;;;;;;;54.00;41.00;;;;;7.85;39.03;101346.75;5102371;27;61731;-76
2022/03/08 02:58:09;;;;;;;;;51.67;41.00;;;;;7.82;39.30;101351.78;5102452;27;62757;-76
2022/03/08 03:00:35;;;;;;;;;62.67;44.00;;;;;7.80;39.06;101356.94;5103559;27;61778;-76
2022/03/08 03:03:01;;;;;;;;;51.67;36.00;;;;;7.80;39.03;101359.53;5103410;27;62007;-76
2022/03/08 03:05:27;;;;;;;;;49.00;36.67;;;;;7.83;39.28;101353.59;5103829;27;61849;-76
2022/03/08 03:07:53;;;;;;;;;45.00;32.33;;;;;7.82;39.83;101350.09;5101339;27;63982;-76
2022/03/08 03:10:20;;;;;;;;;45.67;40.67;;;;;7.83;39.36;101345.75;5101999;27;61857;-76
2022/03/08 03:12:47;;;;;;;;;39.00;33.00;;;;;7.84;39.56;101344.94;5102198;27;61863;-76
2022/03/08 03:15:15;;;;;;;;;47.67;38.67;;;;;7.83;39.44;101348.38;5103856;27;61993;-76
2022/03/08 03:17:41;;;;;;;;;47.33;41.33;;;;;7.81;39.53;101339.53;5102313;27;62054;-76
2022/03/08 03:20:08;;;;;;;;;55.33;34.33;;;;;7.82;39.63;101338.72;5103476;27;61886;-76
2022/03/08 03:22:34;;;;;;;;;60.67;41.00;;;;;7.79;39.54;101336.81;5103553;27;61848;-76
2022/03/08 03:25:00;;;;;;;;;59.00;44.00;;;;;7.78;39.71;101338.53;5103210;27;62276;-76
2022/03/08 03:27:25;;;;;;;;;62.00;40.67;;;;;7.78;40.16;101338.53;5102122;27;62664;-76
2022/03/08 03:29:51;;;;;;;;;41.67;34.67;;;;;7.77;39.71;101327.97;5102103;27;61856;-76
2022/03/08 03:32:16;;;;;;;;;47.00;39.00;;;;;7.81;39.41;101321.22;5103560;27;62547;-76
2022/03/08 03:34:42;;;;;;;;;46.33;39.67;;;;;7.75;39.80;101325.25;5105547;27;61934;-76
2022/03/08 03:37:07;;;;;;;;;61.33;40.67;;;;;7.77;39.70;101327.97;5104774;27;63770;-76
2022/03/08 03:39:33;;;;;;;;;52.67;37.67;;;;;7.74;39.63;101322.56;5106487;27;62353;-76
2022/03/08 03:41:58;;;;;;;;;52.00;37.00;;;;;7.72;39.59;101318.94;5106663;27;62074;-77
2022/03/08 03:44:24;;;;;;;;;60.33;42.00;;;;;7.71;39.72;101314.50;5105432;27;61942;-76
2022/03/08 03:46:50;;;;;;;;;47.33;40.67;;;;;7.71;39.45;101319.72;5121345;27;64051;-76
2022/03/08 03:49:15;;;;;;;;;51.67;42.33;;;;;7.70;39.76;101316.22;5105497;27;62015;-76
2022/03/08 03:51:41;;;;;;;;;58.33;38.33;;;;;7.70;39.88;101315.31;5106775;27;62122;-76
2022/03/08 03:54:07;;;;;;;;;59.00;42.00;;;;;7.69;40.30;101313.50;5106406;27;61880;-76
2022/03/08 03:56:32;;;;;;;;;53.67;41.00;;;;;7.68;40.13;101309.09;5105397;27;61841;-76
2022/03/08 03:58:58;;;;;;;;;66.00;44.67;;;;;7.68;39.75;101319.53;5106038;27;61755;-76
2022/03/08 04:01:23;;;;;;;;;56.67;43.00;;;;;7.65;39.56;101307.19;5104639;27;62433;-76
2022/03/08 04:03:49;;;;;;;;;50.33;40.00;;;;;7.67;39.52;101320.34;5106744;27;61831;-76
2022/03/08 04:06:15;;;;;;;;;56.00;38.67;;;;;7.63;40.04;101318.34;5105408;27;62976;-76
2022/03/08 04:08:40;;;;;;;;;59.67;41.33;;;;;7.54;39.95;101319.56;5105928;27;62045;-76
2022/03/08 04:11:06;;;;;;;;;46.67;40.67;;;;;7.48;40.27;101313.94;5106582;27;62033;-76
2022/03/08 04:13:31;;;;;;;;;45.67;41.33;;;;;7.50;40.02;101321.88;5106366;27;61874;-76
2022/03/08 04:15:57;;;;;;;;;44.67;42.00;;;;;7.47;40.13;101317.34;5105279;27;61733;-76
2022/03/08 04:18:22;;;;;;;;;62.00;44.00;;;;;7.45;40.14;101318.94;5106045;27;62277;-76
2022/03/08 04:20:48;;;;;;;;;48.00;37.33;;;;;7.43;39.90;101314.44;5122055;27;61946;-76
2022/03/08 04:23:13;;;;;;;;;55.67;41.00;;;;;7.37;40.00;101315.84;5106031;27;62005;-76
2022/03/08 04:25:38;;;;;;;;;51.00;36.00;;;;;7.35;40.43;101312.22;5105345;27;62053;-76
2022/03/08 04:28:05;;;;;;;;;46.00;39.33;;;;;7.32;40.66;101304.16;5104007;27;61929;-76
2022/03/08 04:30:31;;;;;;;;;51.67;40.67;;;;;7.31;40.85;101306.72;5104373;27;61766;-76
2022/03/08 04:32:56;;;;;;;;;55.67;45.67;;;;;7.28;40.51;101306.47;5104701;27;62476;-76
2022/03/08 04:35:22;;;;;;;;;41.33;34.33;;;;;7.24;40.50;101304.47;5104004;27;64769;-76
2022/03/08 04:37:48;;;;;;;;;54.33;38.00;;;;;7.20;40.48;101308.59;5103875;27;61837;-76
2022/03/08 04:40:15;;;;;;;;;50.67;42.00;;;;;7.21;41.08;101310.41;5104193;27;61908;-76
2022/03/08 04:42:41;;;;;;;;;41.00;34.33;;;;;7.23;40.80;101306.19;5104174;27;62084;-76
2022/03/08 04:45:08;;;;;;;;;49.33;37.67;;;;;7.23;40.73;101303.56;5104459;27;63320;-76
2022/03/08 04:47:35;;;;;;;;;47.00;38.33;;;;;7.23;40.24;101303.56;5105467;27;62012;-76
2022/03/08 04:50:02;;;;;;;;;54.33;41.67;;;;;7.19;40.74;101303.28;5104556;27;61888;-76
2022/03/08 04:52:27;;;;;;;;;54.67;40.67;;;;;7.14;40.60;101303.88;5105882;27;61865;-76
2022/03/08 04:54:53;;;;;;;;;51.33;42.00;;;;;7.14;40.87;101311.72;5104607;27;62142;-76
2022/03/08 04:57:18;;;;;;;;;51.00;44.33;;;;;7.18;40.49;101307.59;5104772;27;61914;-76
2022/03/08 04:59:44;;;;;;;;;55.67;45.33;;;;;7.18;40.56;101310.22;5105192;27;62227;-76
2022/03/08 05:02:09;;;;;;;;;48.33;35.67;;;;;7.16;40.14;101307.50;5105480;27;61669;-76
2022/03/08 05:04:35;;;;;;;;;56.67;42.33;;;;;7.19;40.22;101304.19;5104933;27;61923;-76
2022/03/08 05:07:00;;;;;;;;;60.00;39.33;;;;;7.16;40.24;101306.59;5104888;27;62011;-76
2022/03/08 05:09:26;;;;;;;;;47.67;36.33;;;;;7.15;40.62;101297.88;5103618;27;61784;-76
2022/03/08 05:11:51;;;;;;;;;49.67;37.67;;;;;7.14;40.39;101296.03;5105495;27;62111;-76
2022/03/08 05:14:16;;;;;;;;;49.33;32.33;;;;;7.18;41.02;101299.78;5104368;27;61786;-76
2022/03/08 05:16:42;;;;;;;;;56.00;41.67;;;;;7.20;40.64;101300.78;5103871;27;61807;-76
2022/03/08 05:19:07;;;;;;;;;56.00;42.33;;;;;7.17;40.99;101298.84;5103884;27;61881;-76
2022/03/08 05:21:33;;;;;;;;;53.00;40.00;;;;;7.17;40.66;101296.22;5105215;27;62037;-76
2022/03/08 05:23:58;;;;;;;;;47.67;35.00;;;;;7.14;40.95;101292.53;5102850;27;63861;-76
2022/03/08 05:26:24;;;;;;;;;43.00;37.67;;;;;7.16;40.81;101289.22;5104513;27;62165;-76
2022/03/08 05:28:49;;;;;;;;;49.33;35.33;;;;;7.16;40.94;101288.31;5104793;27;61922;-76
2022/03/08 05:31:15;;;;;;;;;55.33;42.00;;;;;7.13;41.11;101289.03;5105413;27;61722;-76
2022/03/08 05:33:40;;;;;;;;;48.33;39.67;;;;;7.12;40.79;101291.53;5104223;27;61858;-76
2022/03/08 05:36:06;;;;;;;;;52.00;35.00;;;;;7.11;40.87;101293.25;5103643;27;62004;-76
2022/03/08 05:38:31;;;;;;;;;49.00;42.33;;;;;7.11;41.40;101288.03;5119355;27;62150;-76
2022/03/08 05:40:57;;;;;;;;;43.00;34.33;;;;;7.07;41.41;101292.91;5104458;27;61771;-76
2022/03/08 05:43:22;;;;;;;;;51.00;42.00;;;;;7.08;41.09;101292.13;5102406;27;64184;-76
2022/03/08 05:45:48;;;;;;;;;49.00;43.67;;;;;7.07;41.53;101288.63;5103468;27;61987;-76
2022/03/08 05:48:14;;;;;;;;;50.67;41.33;;;;;7.09;41.47;101293.91;5103143;27;61860;-76
2022/03/08 05:50:39;;;;;;;;;55.00;44.00;;;;;7.08;41.25;101290.41;5105085;27;61764;-76
2022/03/08 05:53:05;;;;;;;;;61.67;42.33;;;;;7.07;41.67;101288.63;5102707;27;61991;-76
2022/03/08 05:55:30;;;;;;;;;39.67;36.67;;;;;7.08;41.05;101287.81;5104083;27;61816;-76
2022/03/08 05:57:55;;;;;;;;;44.33;40.33;;;;;7.09;41.36;101293.91;5103480;27;61736;-76
2022/03/08 06:00:21;;;;;;;;;55.67;42.00;;;;;7.08;41.73;101297.34;5104451;27;62193;-76
2022/03/08 06:02:47;;;;;;;;;58.33;42.00;;;;;7.08;41.69;101297.34;5102554;27;64961;-76
2022/03/08 06:05:12;;;;;;;;;45.33;37.33;;;;;7.04;41.36;101295.34;5103351;27;61953;-76
2022/03/08 06:07:38;;;;;;;;;58.67;44.00;;;;;7.05;41.62;101304.94;5102804;27;61992;-76
2022/03/08 06:10:07;;;;;;;;;51.67;35.33;;;;;7.05;42.05;101305.88;5102267;27;62086;-79
2022/03/08 06:12:33;;;;;;;;;58.33;42.33;;;;;7.07;41.57;101301.66;5102393;27;61860;-83
2022/03/08 06:14:58;;;;;;;;;49.33;38.67;;;;;7.10;41.44;101307.06;5102884;27;62329;-80
2022/03/08 06:17:24;;;;;;;;;52.67;36.67;;;;;7.07;41.39;101301.66;5104250;27;61981;-81
2022/03/08 06:19:49;;;;;;;;;42.67;39.33;;;;;7.08;41.74;101297.34;5104519;27;62140;-78
2022/03/08 06:22:15;;;;;;;;;52.33;42.33;;;;;7.06;41.75;101310.28;5103276;27;62056;-78
2022/03/08 06:24:40;;;;;;;;;51.67;41.67;;;;;7.06;41.72;101312.00;5103778;27;61985;-80
2022/03/08 06:27:06;;;;;;;;;50.33;42.00;;;;;7.07;41.84;101325.16;5103177;27;61845;-84
2022/03/08 06:29:32;;;;;;;;;57.00;43.33;;;;;7.09;41.92;101317.41;5103806;27;61763;-76
2022/03/08 06:31:58;;;;;;;;;56.33;42.00;;;;;7.09;42.01;101312.19;5102943;27;61876;-76
2022/03/08 06:34:23;;;;;;;;;53.33;40.00;;;;;7.12;41.86;101318.53;5096235;27;62051;-79
2022/03/08 06:36:49;;;;;;;;;49.67;40.67;;;;;7.11;41.53;101311.50;5100224;27;62083;-80
2022/03/08 06:39:14;;;;;;;;;53.67;42.67;;;;;7.11;42.41;101319.34;5103585;27;62079;-80
2022/03/08 06:41:40;;;;;;;;;49.67;41.00;;;;;7.12;42.19;101312.41;5100003;27;62157;-79
2022/03/08 06:44:06;;;;;;;;;55.33;42.00;;;;;7.17;41.91;101319.72;5100118;27;62359;-79
2022/03/08 06:46:31;;;;;;;;;40.33;33.67;;;;;7.18;41.91;101310.22;5097202;27;62020;-80
2022/03/08 06:48:57;;;;;;;;;48.33;38.00;;;;;7.21;41.89;101314.72;5099993;27;62090;-80
2022/03/08 06:51:22;;;;;;;;;52.33;43.00;;;;;7.21;42.14;101314.72;5101383;27;62079;-81
2022/03/08 06:53:48;;;;;;;;;60.33;45.00;;;;;7.27;42.29;101316.03;5097376;27;61931;-80
2022/03/08 06:56:15;;;;;;;;;54.00;39.33;;;;;7.36;41.60;101321.84;5106773;27;61947;-81
2022/03/08 06:58:40;;;;;;;;;51.33;45.00;;;;;7.28;41.73;101320.44;5081030;28;61984;-81
2022/03/08 07:01:06;;;;;;;;;57.00;43.00;;;;;7.29;41.54;101317.03;5081445;28;62508;-80
2022/03/08 07:03:31;;;;;;;;;41.00;38.33;;;;;7.28;41.10;101311.72;5099254;27;62002;-80
2022/03/08 07:05:57;;;;;;;;;55.33;41.00;;;;;7.34;41.48;101315.63;5100702;27;62026;-88
2022/03/08 07:08:22;;;;;;;;;53.67;42.00;;;;;7.42;41.64;101308.31;5102231;27;62621;-86
2022/03/08 07:10:50;;;;;;;;;63.33;43.67;;;;;7.51;41.22;101305.38;5098817;27;61963;-83
2022/03/08 07:13:15;;;;;;;;;57.33;45.67;;;;;7.61;41.33;101309.50;5102080;27;61964;-79
2022/03/08 07:15:42;;;;;;;;;55.67;41.33;;;;;7.76;40.84;101308.78;5101190;27;61965;-86
2022/03/08 07:18:09;;;;;;;;;60.00;42.00;;;;;7.84;40.23;101311.88;5100227;27;62151;-83
2022/03/08 07:20:36;;;;;;;;;67.67;44.33;;;;;7.94;40.17;101306.41;5091788;27;63764;-77
2022/03/08 07:23:02;;;;;;;;;55.00;40.33;;;;;8.11;40.46;101307.47;5102891;27;62020;-77
2022/03/08 07:25:27;;;;;;;;;47.67;39.67;;;;;8.34;39.79;101306.31;5102070;27;62083;-78
2022/03/08 07:27:53;;;;;;;;;42.00;35.33;;;;;8.59;40.05;101311.38;5102564;27;62195;-78
2022/03/08 07:30:18;;;;;;;;;65.00;41.33;;;;;8.93;39.30;101312.47;5101023;27;61958;-79
2022/03/08 07:32:44;;;;;;;;;57.67;43.67;;;;;9.14;39.01;101308.50;5100034;27;62282;-77
2022/03/08 07:35:10;;;;;;;;;66.33;48.00;;;;;9.32;38.40;101318.22;5101068;27;61912;-78
2022/03/08 07:37:37;;;;;;;;;61.33;44.33;;;;;9.49;38.74;101316.59;5100463;27;61723;-77
2022/03/08 07:40:07;;;;;;;;;64.67;45.33;;;;;9.79;37.91;101322.66;5100002;27;63296;-80
2022/03/08 07:42:32;;;;;;;;;62.33;48.33;;;;;10.00;37.09;101326.50;5101072;27;61808;-78
2022/03/08 07:44:58;;;;;;;;;68.33;48.67;;;;;10.13;37.08;101327.16;5102901;27;62093;-80
2022/03/08 07:47:23;;;;;;;;;58.00;45.00;;;;;10.08;36.79;101329.53;5102276;27;62140;-80
2022/03/08 07:49:49;;;;;;;;;64.67;40.33;;;;;10.10;37.01;101325.28;5101767;27;61918;-80
2022/03/08 07:52:14;;;;;;;;;62.67;44.33;;;;;10.06;36.81;101333.78;5100352;27;61836;-84
2022/03/08 07:54:40;;;;;;;;;67.00;49.33;;;;;10.11;37.08;101327.09;5093393;27;61958;-84
2022/03/08 07:57:05;;;;;;;;;56.00;44.00;;;;;10.17;36.98;101319.53;5083260;27;62340;-84
2022/03/08 07:59:31;;;;;;;;;64.33;48.00;;;;;10.13;36.35;101330.69;5098144;27;64585;-84
2022/03/08 08:01:56;;;;;;;;;46.33;40.00;;;;;10.18;36.68;101326.59;5101862;27;62062;-83
2022/03/08 08:04:23;;;;;;;;;58.33;45.67;;;;;10.21;37.02;101334.63;5118593;27;62002;-84
2022/03/08 08:06:48;;;;;;;;;59.67;46.00;;;;;10.33;37.30;101347.56;5100173;27;61813;-84
2022/03/08 08:09:14;;;;;;;;;63.33;43.67;;;;;10.37;36.67;101335.50;5096339;27;62385;-84
2022/03/08 08:11:40;;;;;;;;;48.33;38.67;;;;;10.30;36.41;101331.63;5082023;27;61980;-84
2022/03/08 08:14:06;;;;;;;;;58.00;43.00;;;;;10.27;36.13;101331.44;5089136;27;61898;-84
2022/03/08 08:16:31;;;;;;;;;59.33;47.67;;;;;10.35;36.79;101335.41;5102709;27;61816;-84
2022/03/08 08:18:58;;;;;;;;;61.00;45.33;;;;;10.36;36.29;101333.69;5102363;27;61927;-83
2022/03/08 08:21:24;;;;;;;;;58.00;42.00;;;;;10.38;35.87;101327.69;5103031;27;62008;-84
2022/03/08 08:23:49;;;;;;;;;53.67;42.67;;;;;10.44;36.29;101335.91;5105023;27;62208;-84
2022/03/08 08:26:15;;;;;;;;;60.00;45.67;;;;;10.37;36.05;101331.16;5104990;27;61734;-83
2022/03/08 08:28:41;;;;;;;;;66.33;45.67;;;;;10.34;36.18;101335.31;5104591;27;62435;-84
2022/03/08 08:31:06;;;;;;;;;61.67;43.67;;;;;10.44;36.12;101338.53;5103064;27;61991;-83
2022/03/08 08:33:32;;;;;;;;;57.67;42.33;;;;;10.56;36.50;101340.00;5104306;27;61936;-81
2022/03/08 08:35:58;;;;;;;;;65.00;46.00;;;;;10.55;36.35;101330.34;5104086;27;61783;-83
2022/03/08 08:38:23;;;;;;;;;62.67;43.67;;;;;10.56;35.95;101340.00;5103352;27;61794;-83
2022/03/08 08:40:49;;;;;;;;;56.33;48.00;;;;;10.65;36.08;101335.25;5106179;27;61926;-83
2022/03/08 08:43:14;;;;;;;;;59.00;44.00;;;;;10.71;36.31;101337.28;5104573;27;61934;-84
2022/03/08 08:45:40;;;;;;;;;57.67;43.00;;;;;10.72;36.12;101342.63;5104442;27;62175;-83
2022/03/08 08:48:07;;;;;;;;;56.67;43.00;;;;;10.72;35.74;101346.97;5103214;27;63558;-84
2022/03/08 08:50:34;;;;;;;;;64.00;47.00;;;;;10.65;35.93;101345.75;5099824;27;61891;-83
2022/03/08 08:52:59;;;;;;;;;61.33;47.00;;;;;10.70;35.70;101346.91;5094117;27;62007;-83
2022/03/08 08:55:25;;;;;;;;;65.00;49.33;;;;;10.74;35.88;101343.59;5105155;27;61681;-83
2022/03/08 08:57:51;;;;;;;;;64.33;50.33;;;;;10.73;36.13;101347.06;5102113;27;63888;-83
2022/03/08 09:00:16;;;;;;;;;65.00;44.33;;;;;10.85;35.94;101341.53;5105361;27;62029;-83
2022/03/08 09:02:43;;;;;;;;;60.00;43.00;;;;;10.88;36.22;101346.03;5105275;27;61812;-83
2022/03/08 09:05:10;;;;;;;;;69.00;51.00;;;;;10.87;35.54;101349.50;5103567;27;61861;-83
2022/03/08 09:07:36;;;;;;;;;70.33;51.00;;;;;10.87;35.86;101341.63;5102530;27;64981;-83
2022/03/08 09:10:04;;;;;;;;;68.00;47.33;;;;;10.91;35.65;101335.72;5121026;27;61962;-83
2022/03/08 09:12:29;;;;;;;;;64.00;43.67;;;;;10.99;36.02;101335.28;5105347;27;62081;-83
2022/03/08 09:14:55;;;;;;;;;69.33;50.00;;;;;11.13;35.81;101330.72;5103914;27;62181;-83
2022/03/08 09:17:21;;;;;;;;;52.33;40.33;;;;;11.18;36.02;101331.88;5103192;27;63927;-83
2022/03/08 09:19:47;;;;;;;;;61.33;45.67;;;;;11.25;35.64;101333.97;5102793;27;61834;-83
2022/03/08 09:22:12;;;;;;;;;59.33;46.00;;;;;11.28;35.61;101329.72;5104617;27;61728;-84
2022/03/08 09:24:39;;;;;;;;;62.67;43.67;;;;;11.33;35.45;101325.56;5104437;27;61894;-84
2022/03/08 09:27:05;;;;;;;;;66.67;51.67;;;;;11.36;35.64;101323.13;5102246;27;62851;-85
2022/03/08 09:29:31;;;;;;;;;63.67;45.67;;;;;11.42;35.83;101318.16;5102552;27;61813;-84
2022/03/08 09:31:56;;;;;;;;;66.67;47.00;;;;;11.48;35.84;101322.81;5104970;27;61849;-84
2022/03/08 09:34:22;;;;;;;;;58.33;45.33;;;;;11.55;35.44;101319.66;5103470;27;61769;-84
2022/03/08 09:36:47;;;;;;;;;71.67;51.00;;;;;11.62;35.53;101324.38;5102731;27;64555;-84
2022/03/08 09:39:13;;;;;;;;;65.00;47.67;;;;;11.71;35.94;101316.03;5104256;27;61818;-84
2022/03/08 09:41:40;;;;;;;;;68.67;48.67;;;;;11.76;35.86;101318.09;5104566;27;61908;-84
2022/03/08 09:44:11;;;;;;;;;65.33;51.00;;;;;11.78;35.56;101321.69;5103579;27;61786;-84
2022/03/08 09:46:36;;;;;;;;;69.33;49.33;;;;;11.71;35.21;101316.94;5104147;27;61969;-84
2022/03/08 09:49:02;;;;;;;;;62.67;48.00;;;;;11.73;35.50;101314.38;5103807;27;61917;-83
2022/03/08 09:51:28;;;;;;;;;61.67;48.67;;;;;11.81;35.54;101320.94;5103311;27;61931;-84
2022/03/08 09:53:54;;;;;;;;;61.00;46.33;;;;;11.85;35.72;101321.13;5102950;27;61889;-83
2022/03/08 09:56:20;;;;;;;;;59.67;49.33;;;;;11.92;35.52;101319.72;5098727;27;63785;-84
2022/03/08 09:58:45;;;;;;;;;57.00;46.33;;;;;11.98;35.38;101319.13;5083272;27;61782;-84
2022/03/08 10:01:11;;;;;;;;;68.33;48.00;;;;;12.00;35.54;101310.47;5083976;27;61735;-84
2022/03/08 10:03:43;;;;;;;;;65.50;49.00;;;;;12.10;35.78;101311.78;5083865;27;61715;-83
2022/03/08 10:06:10;;;;;;;;;66.33;47.67;;;;;12.04;35.39;101311.53;5116355;27;64086;-79
2022/03/08 10:08:37;;;;;;;;;47.67;39.67;;;;;12.12;35.91;101310.13;5085148;27;61982;-78
2022/03/08 10:11:05;;;;;;;;;55.25;41.25;;;;;12.25;35.76;101307.25;5102720;27;61793;-78
2022/03/08 10:13:41;;;;;;;;;69.67;50.33;;;;;12.33;35.81;101299.69;5103173;27;61916;-87
2022/03/08 10:16:41;;;;;;;;;62.67;46.00;;;;;12.43;35.40;101307.19;5103091;27;62825;-87
2022/03/08 10:19:09;;;;;;;;;66.33;50.00;;;;;12.48;35.30;101292.47;5083226;27;61898;-83
2022/03/08 10:21:51;;;;;;;;;60.33;44.33;;;;;12.58;35.10;101295.53;5099319;27;61848;-83
2022/03/08 10:24:28;;;;;;;;;63.00;40.33;;;;;12.60;34.97;101297.41;5099051;27;62015;-83
2022/03/08 10:26:55;;;;;;;;;62.00;46.50;;;;;12.65;35.76;101287.97;5098683;27;62127;-83
2022/03/08 10:29:25;;;;;;;;;60.67;48.33;;;;;12.71;34.97;101278.56;5086742;27;61803;-83
2022/03/08 10:32:18;;;;;;;;;60.25;44.25;;;;;12.81;35.82;101278.09;5098733;27;61847;-83
2022/03/08 10:34:46;;;;;;;;;52.50;38.75;;;;;12.88;35.38;101280.19;5083741;27;61958;-82
2022/03/08 10:37:19;;;;;;;;;59.50;45.25;;;;;12.99;34.89;101278.00;5081421;28;64751;-83
2022/03/08 10:39:52;;;;;;;;;59.33;43.67;;;;;13.10;35.62;101287.25;5098917;27;61973;-83
2022/03/08 10:42:23;;;;;;;;;57.50;40.75;;;;;13.15;35.57;101280.41;5097650;27;62402;-83
2022/03/08 10:44:49;;;;;;;;;55.00;45.25;;;;;13.16;35.51;101278.72;5083651;27;61960;-82
2022/03/08 10:47:16;;;;;;;;;59.25;45.00;;;;;13.19;35.79;101277.09;5082308;28;61883;-82
2022/03/08 10:49:56;;;;;;;;;62.00;44.00;;;;;13.22;35.29;101271.97;5091701;27;61842;-85
2022/03/08 10:52:33;;;;;;;;;64.75;50.00;;;;;13.34;35.32;101270.69;5119600;27;61797;-84
2022/03/08 10:55:14;;;;;;;;;71.00;50.00;;;;;13.53;35.70;101267.94;5095182;27;62024;-81
2022/03/08 10:57:50;;;;;;;;;67.00;49.33;;;;;13.66;34.77;101261.44;5100872;27;63844;-84
2022/03/08 11:00:20;;;;;;;;;58.50;43.50;;;;;13.82;34.62;101250.63;5103361;27;61807;-84
2022/03/08 11:02:56;;;;;;;;;64.75;46.50;;;;;13.96;34.60;101250.25;5101755;27;61976;-84
2022/03/08 11:05:27;;;;;;;;;67.25;49.50;;;;;14.13;34.80;101242.97;5101075;27;61873;-84
2022/03/08 11:07:55;;;;;;;;;65.25;47.50;;;;;14.35;34.52;101247.31;5100968;27;63017;-84
2022/03/08 11:10:21;;;;;;;;;61.00;44.00;;;;;14.56;34.09;101244.56;5101244;27;62253;-78